Weather History for Jefferson, NC

Change the Weather History Date:

Friday, November 16, 2012

  Actual Average Record
Temperature  
Mean Temperature 40 °F -  
Max Temperature 51 °F 53 °F 70 °F (1991)
Min Temperature 28 °F 30 °F 13 °F (1967)
Degree Days  
Heating Degree Days 26    
Moisture  
Dew Point 20 °F    
Average Humidity 50    
Maximum Humidity 93    
Minimum Humidity 19    
Precipitation  
Precipitation 0.00 in - - ()
Sea Level Pressure  
Sea Level Pressure 30.28 in    
Wind  
Wind Speed 2 mph (NNE)    
Max Wind Speed 7 mph    
Max Gust Speed -    
Visibility 10 miles    
Events      
Averages and records for this station are not official NWS values.
T = Trace of Precipitation, MM = Missing Value Source: NWS Daily Summary

Daily Weather History Graph

Daily Weather History Graph

Search for Another Location

Airport:

Trip Planner

Search our weather history database for the weather conditions in past years. The results will help you decide how hot, cold, wet, or windy it might be!

Date:

Astronomy

Nov. 16, 2012 Rise Set
Actual Time 7:04 AM EST 5:16 PM EST
Civil Twilight 6:37 AM EST 5:43 PM EST
Nautical Twilight 6:05 AM EST 6:14 PM EST
Astronomical Twilight 5:35 AM EST 6:45 PM EST
Moon 9:56 AM EST (11/16) 8:15 PM EST (11/16)
Length of Visible Light 11h 06m
Length of Day
10h 11m
Waxing Crescent, 11% of the Moon is Illuminated
Nov 16
Waxing Crescent
Nov 20
First Quarter
Nov 28
Full
Dec 6
Last Quarter
Dec 13
New

Hourly Weather History & Observations

Time (EST) Temp. Windchill Dew Point Humidity Pressure Visibility Wind Dir Wind Speed Gust Speed Precip Events Conditions
12:15 AM 33.8 °F - 28.4 °F 81% 30.23 in 10.0 mi Calm Calm - N/A   Clear
12:35 AM 32.0 °F - 26.6 °F 80% 30.23 in 10.0 mi Calm Calm - N/A   Clear
12:55 AM 33.8 °F - 26.6 °F 75% 30.23 in 10.0 mi Calm Calm - N/A   Clear
1:15 AM 32.0 °F - 26.6 °F 80% 30.23 in 10.0 mi Calm Calm - N/A   Clear
1:35 AM 32.0 °F - 26.6 °F 80% 30.23 in 10.0 mi Calm Calm - N/A   Clear
1:55 AM 33.8 °F - 26.6 °F 75% 30.23 in 10.0 mi Calm Calm - N/A   Clear
2:15 AM 33.8 °F - 28.4 °F 81% 30.23 in 10.0 mi Calm Calm - N/A   Clear
2:35 AM 32.0 °F - 26.6 °F 80% 30.23 in 10.0 mi Calm Calm - N/A   Clear
2:55 AM 28.4 °F - 26.6 °F 93% 30.23 in 10.0 mi Calm Calm - N/A   Clear
3:15 AM 30.2 °F - 26.6 °F 86% 30.23 in 10.0 mi Calm Calm - N/A   Clear
3:35 AM 28.4 °F - 26.6 °F 93% 30.23 in 10.0 mi Calm Calm - N/A   Clear
3:55 AM 30.2 °F - 26.6 °F 86% 30.23 in 10.0 mi Calm Calm - N/A   Clear
4:15 AM 28.4 °F - 26.6 °F 93% 30.23 in 10.0 mi Calm Calm - N/A   Clear
4:35 AM 28.4 °F - 26.6 °F 93% 30.23 in 10.0 mi Calm Calm - N/A   Clear
4:55 AM 30.2 °F - 26.6 °F 86% 30.23 in 10.0 mi Calm Calm - N/A   Clear
5:15 AM 30.2 °F - 26.6 °F 86% 30.23 in 10.0 mi Calm Calm - N/A   Clear
5:35 AM 28.4 °F 24.6 °F 26.6 °F 93% 30.23 in 10.0 mi NNW 3.5 mph - N/A   Clear
5:55 AM 30.2 °F - 28.4 °F 93% 30.23 in 10.0 mi Calm Calm - N/A   Clear
6:15 AM 32.0 °F - 26.6 °F 80% 30.23 in 10.0 mi Calm Calm - N/A   Clear
6:35 AM 30.2 °F - 26.6 °F 86% 30.23 in 10.0 mi Calm Calm - N/A   Clear
7:35 AM 30.2 °F - 26.6 °F 86% 30.24 in 10.0 mi Calm Calm - N/A   Clear
8:15 AM 33.8 °F 30.8 °F 23.0 °F 65% 30.25 in 10.0 mi West 3.5 mph - N/A   Clear
8:35 AM 35.6 °F - 19.4 °F 52% 30.26 in 10.0 mi Calm Calm - N/A   Clear
9:15 AM 39.2 °F - 26.6 °F 61% 30.27 in 10.0 mi Calm Calm - N/A   Clear
9:35 AM 41.0 °F 39.0 °F 19.4 °F 42% 30.27 in 10.0 mi NE 3.5 mph - N/A   Clear
9:55 AM 41.0 °F - 19.4 °F 42% 30.27 in 10.0 mi Calm Calm - N/A   Clear
10:15 AM 42.8 °F 41.1 °F 19.4 °F 39% 30.28 in 10.0 mi NNE 3.5 mph - N/A   Clear
10:35 AM 44.6 °F 41.4 °F 12.2 °F 27% 30.29 in 10.0 mi North 5.8 mph - N/A   Clear
10:55 AM 44.6 °F 42.2 °F 14.0 °F 29% 30.29 in 10.0 mi ENE 4.6 mph - N/A   Clear
11:15 AM 46.4 °F 43.5 °F 14.0 °F 27% 30.29 in 10.0 mi ENE 5.8 mph - N/A   Clear
11:35 AM 46.4 °F 43.5 °F 14.0 °F 27% 30.28 in 10.0 mi ENE 5.8 mph - N/A   Clear
12:15 PM 48.2 °F - 15.8 °F 27% 30.27 in 10.0 mi East 6.9 mph - N/A   Clear
12:35 PM 48.2 °F - 14.0 °F 25% 30.27 in 10.0 mi NE 5.8 mph - N/A   Clear
12:55 PM 50.0 °F - 15.8 °F 26% 30.27 in 10.0 mi NE 5.8 mph - N/A   Clear
1:15 PM 50.0 °F - 15.8 °F 26% 30.26 in 10.0 mi NNE 4.6 mph - N/A   Clear
1:35 PM 50.0 °F - 10.4 °F 20% 30.26 in 10.0 mi North 3.5 mph - N/A   Clear
2:15 PM 51.8 °F - 14.0 °F 22% 30.25 in 10.0 mi NNE 3.5 mph - N/A   Clear
2:35 PM 51.8 °F - 10.4 °F 19% 30.25 in 10.0 mi North 5.8 mph - N/A   Clear
2:55 PM 51.8 °F - 12.2 °F 21% 30.25 in 10.0 mi East 5.8 mph - N/A   Clear
3:15 PM 51.8 °F - 12.2 °F 21% 30.26 in 10.0 mi East 3.5 mph - N/A   Clear
3:35 PM 51.8 °F - 12.2 °F 21% 30.26 in 10.0 mi NE 3.5 mph - N/A   Clear
4:15 PM 50.0 °F - 10.4 °F 20% 30.27 in 10.0 mi NE 3.5 mph - N/A   Clear
4:35 PM 50.0 °F - 12.2 °F 22% 30.27 in 10.0 mi NE 3.5 mph - N/A   Clear
4:55 PM 50.0 °F - 12.2 °F 22% 30.27 in 10.0 mi NNE 5.8 mph - N/A   Clear
5:35 PM 46.4 °F 43.5 °F 14.0 °F 27% 30.28 in 10.0 mi NNE 5.8 mph - N/A   Clear
5:55 PM 46.4 °F 44.3 °F 14.0 °F 27% 30.29 in 10.0 mi North 4.6 mph - N/A   Clear
6:15 PM 46.4 °F 44.3 °F 14.0 °F 27% 30.30 in 10.0 mi North 4.6 mph - N/A   Clear
6:35 PM 44.6 °F 42.2 °F 15.8 °F 31% 30.31 in 10.0 mi North 4.6 mph - N/A   Clear
6:55 PM 44.6 °F 43.1 °F 15.8 °F 31% 30.31 in 10.0 mi NNE 3.5 mph - N/A   Clear
7:15 PM 44.6 °F 43.1 °F 15.8 °F 31% 30.31 in 10.0 mi North 3.5 mph - N/A   Clear
7:35 PM 44.6 °F 43.1 °F 14.0 °F 29% 30.32 in 10.0 mi North 3.5 mph - N/A   Clear
7:55 PM 44.6 °F - 14.0 °F 29% 30.32 in 10.0 mi Calm Calm - N/A   Clear
8:15 PM 44.6 °F 43.1 °F 14.0 °F 29% 30.33 in 10.0 mi NNE 3.5 mph - N/A   Clear
8:35 PM 42.8 °F 41.1 °F 14.0 °F 31% 30.33 in 10.0 mi NE 3.5 mph - N/A   Clear
8:55 PM 42.8 °F 41.1 °F 15.8 °F 34% 30.34 in 10.0 mi North 3.5 mph - N/A   Clear
9:15 PM 42.8 °F 41.1 °F 17.6 °F 36% 30.34 in 10.0 mi North 3.5 mph - N/A   Clear
9:35 PM 41.0 °F 38.0 °F 19.4 °F 42% 30.35 in 10.0 mi North 4.6 mph - N/A   Clear
9:55 PM 41.0 °F - 19.4 °F 42% 30.35 in 10.0 mi Calm Calm - N/A   Clear
10:15 PM 39.2 °F - 19.4 °F 45% 30.36 in 10.0 mi Calm Calm - N/A   Clear
10:35 PM 39.2 °F - 19.4 °F 45% 30.36 in 10.0 mi Calm Calm - N/A   Clear
10:55 PM 39.2 °F - 19.4 °F 45% 30.37 in 10.0 mi Calm Calm - N/A   Clear
11:15 PM 35.6 °F - 19.4 °F 52% 30.37 in 10.0 mi Calm Calm - N/A   Clear
11:35 PM 37.4 °F - 21.2 °F 52% 30.37 in 10.0 mi Calm Calm - N/A   Clear
11:55 PM 35.6 °F - 19.4 °F 52% 30.37 in 10.0 mi Calm Calm - N/A   Clear